ETOU/WIE METAR and TAF weather

Enter ICAO airport designator
Station Type Date Time Source
ETOU METAR 2019/02/23 16:56 UTC NOAA

ETOU 231656Z AUTO 06009KT 9999 CLR 07/M05 A3066 RMK AO2 SLP390 T00681052 $


Station Type Date Time Source
ETOU Decoded METAR 2019/02/23 16:56 UTC NOAA

Wiesbaden, Germany (ETOU) 50-03N 008-20E
Feb 23, 2019 - 11:56 AM EST / 2019.02.23 1656 UTC
Wind: from the ENE (060 degrees) at 10 MPH (9 KT):0
Visibility: greater than 7 mile(s):0
Sky conditions: clear
Temperature: 44.2 F (6.8 C)
Dew Point: 22.6 F (-5.2 C)
Relative Humidity: 42%
Pressure (altimeter): 30.66 in. Hg (1038 hPa)
ob: ETOU 231656Z AUTO 06009KT 9999 CLR 07/M05 A3066 RMK AO2 SLP390 T00681052
cycle: 17

Station Type Date Time Source
ETOU TAF 2019/02/23 09:37 UTC NOAA

TAF
AMD ETOU 230930Z 2309/2410 09009KT 9999 SKC QNH3062INS
BECMG 2316/2317 VRB06KT 9999 SKC QNH3061INS TX08/2315Z TNM01/2404Z LAST NO
AMDS AFT 2309 NEXT 2404


Example: see airport list